sensor_id;sensor_type;location;lat;lon;timestamp;P1;durP1;ratioP1;P2;durP2;ratioP2
35496;SDS011;21609;49.298;6.844;2022-12-10T00:01:43;6.88;;;6.25;;
35496;SDS011;21609;49.298;6.844;2022-12-10T00:04:10;6.65;;;5.95;;
35496;SDS011;21609;49.298;6.844;2022-12-10T00:06:37;5.53;;;5.03;;
35496;SDS011;21609;49.298;6.844;2022-12-10T00:09:05;7.07;;;6.38;;
35496;SDS011;21609;49.298;6.844;2022-12-10T00:11:32;6.18;;;5.57;;
35496;SDS011;21609;49.298;6.844;2022-12-10T00:13:58;6.22;;;5.63;;
35496;SDS011;21609;49.298;6.844;2022-12-10T00:16:25;6.60;;;6.00;;
35496;SDS011;21609;49.298;6.844;2022-12-10T00:18:52;6.90;;;6.22;;
35496;SDS011;21609;49.298;6.844;2022-12-10T00:21:23;6.35;;;5.75;;
35496;SDS011;21609;49.298;6.844;2022-12-10T00:23:51;6.07;;;5.47;;
35496;SDS011;21609;49.298;6.844;2022-12-10T00:26:18;6.57;;;5.95;;
35496;SDS011;21609;49.298;6.844;2022-12-10T00:28:52;6.05;;;5.53;;
35496;SDS011;21609;49.298;6.844;2022-12-10T00:31:22;6.28;;;5.68;;
35496;SDS011;21609;49.298;6.844;2022-12-10T00:33:54;5.88;;;5.28;;
35496;SDS011;21609;49.298;6.844;2022-12-10T00:36:25;6.10;;;5.45;;
35496;SDS011;21609;49.298;6.844;2022-12-10T00:38:53;6.68;;;5.97;;
35496;SDS011;21609;49.298;6.844;2022-12-10T00:41:19;6.85;;;6.15;;
35496;SDS011;21609;49.298;6.844;2022-12-10T00:43:44;7.22;;;6.32;;
35496;SDS011;21609;49.298;6.844;2022-12-10T00:46:11;6.15;;;5.40;;
35496;SDS011;21609;49.298;6.844;2022-12-10T00:48:38;6.90;;;6.30;;
35496;SDS011;21609;49.298;6.844;2022-12-10T00:51:04;6.55;;;5.95;;
35496;SDS011;21609;49.298;6.844;2022-12-10T00:53:33;16.55;;;5.40;;
35496;SDS011;21609;49.298;6.844;2022-12-10T00:55:59;6.50;;;5.90;;
35496;SDS011;21609;49.298;6.844;2022-12-10T00:58:29;6.50;;;5.65;;
35496;SDS011;21609;49.298;6.844;2022-12-10T01:03:58;6.57;;;5.97;;
35496;SDS011;21609;49.298;6.844;2022-12-10T01:06:32;6.57;;;5.97;;
35496;SDS011;21609;49.298;6.844;2022-12-10T01:09:04;6.05;;;5.53;;
35496;SDS011;21609;49.298;6.844;2022-12-10T01:11:32;9.25;;;6.35;;
35496;SDS011;21609;49.298;6.844;2022-12-10T01:13:59;6.60;;;5.78;;
35496;SDS011;21609;49.298;6.844;2022-12-10T01:16:25;6.43;;;5.82;;
35496;SDS011;21609;49.298;6.844;2022-12-10T01:18:55;8.43;;;7.50;;
35496;SDS011;21609;49.298;6.844;2022-12-10T01:23:48;6.25;;;5.65;;
35496;SDS011;21609;49.298;6.844;2022-12-10T01:26:21;6.65;;;6.05;;
35496;SDS011;21609;49.298;6.844;2022-12-10T01:28:49;6.03;;;5.53;;
35496;SDS011;21609;49.298;6.844;2022-12-10T01:31:17;5.70;;;5.20;;
35496;SDS011;21609;49.298;6.844;2022-12-10T01:33:51;6.13;;;5.50;;
35496;SDS011;21609;49.298;6.844;2022-12-10T01:36:18;6.45;;;5.85;;
35496;SDS011;21609;49.298;6.844;2022-12-10T01:38:45;6.05;;;5.45;;
35496;SDS011;21609;49.298;6.844;2022-12-10T01:41:16;6.00;;;5.40;;
35496;SDS011;21609;49.298;6.844;2022-12-10T01:43:51;5.90;;;5.40;;
35496;SDS011;21609;49.298;6.844;2022-12-10T01:46:19;6.80;;;6.10;;
35496;SDS011;21609;49.298;6.844;2022-12-10T01:48:45;5.53;;;5.00;;
35496;SDS011;21609;49.298;6.844;2022-12-10T01:51:12;6.35;;;5.75;;
35496;SDS011;21609;49.298;6.844;2022-12-10T01:53:39;5.90;;;5.30;;
35496;SDS011;21609;49.298;6.844;2022-12-10T01:56:06;6.45;;;5.80;;
35496;SDS011;21609;49.298;6.844;2022-12-10T01:58:33;6.15;;;5.55;;
35496;SDS011;21609;49.298;6.844;2022-12-10T02:01:03;6.63;;;5.93;;
35496;SDS011;21609;49.298;6.844;2022-12-10T02:03:33;5.43;;;4.93;;
35496;SDS011;21609;49.298;6.844;2022-12-10T02:06:19;5.55;;;5.05;;
35496;SDS011;21609;49.298;6.844;2022-12-10T02:12:10;9.00;;;7.70;;
35496;SDS011;21609;49.298;6.844;2022-12-10T02:15:04;6.55;;;5.95;;
35496;SDS011;21609;49.298;6.844;2022-12-10T02:17:38;7.60;;;6.72;;
35496;SDS011;21609;49.298;6.844;2022-12-10T02:20:19;5.90;;;5.22;;
35496;SDS011;21609;49.298;6.844;2022-12-10T02:22:53;7.97;;;7.18;;
35496;SDS011;21609;49.298;6.844;2022-12-10T02:25:24;5.50;;;5.00;;
35496;SDS011;21609;49.298;6.844;2022-12-10T02:30:43;5.53;;;5.03;;
35496;SDS011;21609;49.298;6.844;2022-12-10T02:33:10;8.57;;;7.28;;
35496;SDS011;21609;49.298;6.844;2022-12-10T02:35:38;5.28;;;4.78;;
35496;SDS011;21609;49.298;6.844;2022-12-10T02:38:39;9.93;;;6.97;;
35496;SDS011;21609;49.298;6.844;2022-12-10T02:41:00;6.00;;;5.40;;
35496;SDS011;21609;49.298;6.844;2022-12-10T02:43:29;5.07;;;4.57;;
35496;SDS011;21609;49.298;6.844;2022-12-10T02:45:57;7.80;;;6.93;;
35496;SDS011;21609;49.298;6.844;2022-12-10T02:48:26;6.65;;;5.57;;
35496;SDS011;21609;49.298;6.844;2022-12-10T02:50:52;8.35;;;7.05;;
35496;SDS011;21609;49.298;6.844;2022-12-10T02:53:18;5.63;;;5.13;;
35496;SDS011;21609;49.298;6.844;2022-12-10T03:04:37;6.28;;;5.68;;
35496;SDS011;21609;49.298;6.844;2022-12-10T03:07:14;7.60;;;6.80;;
35496;SDS011;21609;49.298;6.844;2022-12-10T03:09:50;6.43;;;5.82;;
35496;SDS011;21609;49.298;6.844;2022-12-10T03:12:24;7.85;;;6.95;;
35496;SDS011;21609;49.298;6.844;2022-12-10T03:14:58;5.95;;;5.38;;
35496;SDS011;21609;49.298;6.844;2022-12-10T03:17:25;7.32;;;6.55;;
35496;SDS011;21609;49.298;6.844;2022-12-10T03:19:53;5.68;;;5.18;;
35496;SDS011;21609;49.298;6.844;2022-12-10T03:22:21;7.95;;;6.75;;
35496;SDS011;21609;49.298;6.844;2022-12-10T03:24:47;6.10;;;5.60;;
35496;SDS011;21609;49.298;6.844;2022-12-10T03:27:13;7.63;;;6.85;;
35496;SDS011;21609;49.298;6.844;2022-12-10T03:29:44;7.03;;;5.70;;
35496;SDS011;21609;49.298;6.844;2022-12-10T03:34:38;7.90;;;6.65;;
35496;SDS011;21609;49.298;6.844;2022-12-10T03:37:05;5.60;;;5.10;;
35496;SDS011;21609;49.298;6.844;2022-12-10T03:39:31;7.43;;;6.53;;
35496;SDS011;21609;49.298;6.844;2022-12-10T03:41:57;8.05;;;6.65;;
35496;SDS011;21609;49.298;6.844;2022-12-10T03:44:27;6.10;;;5.50;;
35496;SDS011;21609;49.298;6.844;2022-12-10T03:46:56;7.93;;;7.07;;
35496;SDS011;21609;49.298;6.844;2022-12-10T03:49:22;5.32;;;4.80;;
35496;SDS011;21609;49.298;6.844;2022-12-10T03:51:48;7.75;;;6.93;;
35496;SDS011;21609;49.298;6.844;2022-12-10T03:54:14;7.65;;;6.55;;
35496;SDS011;21609;49.298;6.844;2022-12-10T03:56:39;5.78;;;5.07;;
35496;SDS011;21609;49.298;6.844;2022-12-10T03:59:05;7.50;;;6.70;;
35496;SDS011;21609;49.298;6.844;2022-12-10T04:01:30;5.43;;;4.93;;
35496;SDS011;21609;49.298;6.844;2022-12-10T04:03:56;7.60;;;6.80;;
35496;SDS011;21609;49.298;6.844;2022-12-10T04:06:21;5.50;;;5.00;;
35496;SDS011;21609;49.298;6.844;2022-12-10T04:08:47;8.80;;;7.20;;
35496;SDS011;21609;49.298;6.844;2022-12-10T04:11:13;5.40;;;4.90;;
35496;SDS011;21609;49.298;6.844;2022-12-10T04:13:40;8.40;;;7.00;;
35496;SDS011;21609;49.298;6.844;2022-12-10T04:16:25;7.15;;;6.18;;
35496;SDS011;21609;49.298;6.844;2022-12-10T04:18:52;5.15;;;4.72;;
35496;SDS011;21609;49.298;6.844;2022-12-10T04:21:29;6.80;;;5.90;;
35496;SDS011;21609;49.298;6.844;2022-12-10T04:24:16;5.57;;;5.07;;
35496;SDS011;21609;49.298;6.844;2022-12-10T04:27:03;6.68;;;6.03;;
35496;SDS011;21609;49.298;6.844;2022-12-10T04:29:33;5.57;;;4.90;;
35496;SDS011;21609;49.298;6.844;2022-12-10T04:31:59;7.45;;;6.70;;
35496;SDS011;21609;49.298;6.844;2022-12-10T04:34:25;8.50;;;6.85;;
35496;SDS011;21609;49.298;6.844;2022-12-10T04:36:51;7.10;;;6.13;;
35496;SDS011;21609;49.298;6.844;2022-12-10T04:39:17;7.57;;;6.10;;
35496;SDS011;21609;49.298;6.844;2022-12-10T04:41:44;5.10;;;4.60;;
35496;SDS011;21609;49.298;6.844;2022-12-10T04:44:11;6.85;;;6.00;;
35496;SDS011;21609;49.298;6.844;2022-12-10T04:46:37;4.90;;;4.40;;
35496;SDS011;21609;49.298;6.844;2022-12-10T04:49:03;7.10;;;6.10;;
35496;SDS011;21609;49.298;6.844;2022-12-10T04:51:29;5.20;;;4.70;;
35496;SDS011;21609;49.298;6.844;2022-12-10T04:53:56;7.53;;;6.20;;
35496;SDS011;21609;49.298;6.844;2022-12-10T04:56:21;5.85;;;5.35;;
35496;SDS011;21609;49.298;6.844;2022-12-10T04:58:47;7.40;;;6.38;;
35496;SDS011;21609;49.298;6.844;2022-12-10T05:01:13;5.05;;;4.50;;
35496;SDS011;21609;49.298;6.844;2022-12-10T05:03:39;6.38;;;5.78;;
35496;SDS011;21609;49.298;6.844;2022-12-10T05:06:06;5.28;;;4.75;;
35496;SDS011;21609;49.298;6.844;2022-12-10T05:08:34;6.68;;;5.97;;
35496;SDS011;21609;49.298;6.844;2022-12-10T05:11:01;4.85;;;4.45;;
35496;SDS011;21609;49.298;6.844;2022-12-10T05:13:28;7.93;;;6.18;;
35496;SDS011;21609;49.298;6.844;2022-12-10T05:15:54;5.22;;;4.72;;
35496;SDS011;21609;49.298;6.844;2022-12-10T05:18:19;4.78;;;4.38;;
35496;SDS011;21609;49.298;6.844;2022-12-10T05:20:45;7.43;;;6.63;;
35496;SDS011;21609;49.298;6.844;2022-12-10T05:23:10;5.07;;;4.60;;
35496;SDS011;21609;49.298;6.844;2022-12-10T05:26:27;6.95;;;5.90;;
35496;SDS011;21609;49.298;6.844;2022-12-10T05:28:54;4.90;;;4.40;;
35496;SDS011;21609;49.298;6.844;2022-12-10T05:31:21;8.57;;;6.05;;
35496;SDS011;21609;49.298;6.844;2022-12-10T05:33:50;7.50;;;6.60;;
35496;SDS011;21609;49.298;6.844;2022-12-10T05:36:17;5.03;;;4.45;;
35496;SDS011;21609;49.298;6.844;2022-12-10T05:38:44;8.15;;;5.72;;
35496;SDS011;21609;49.298;6.844;2022-12-10T05:41:17;4.32;;;3.85;;
35496;SDS011;21609;49.298;6.844;2022-12-10T05:43:45;6.82;;;5.97;;
35496;SDS011;21609;49.298;6.844;2022-12-10T05:46:13;5.25;;;4.85;;
35496;SDS011;21609;49.298;6.844;2022-12-10T05:48:40;7.25;;;6.50;;
35496;SDS011;21609;49.298;6.844;2022-12-10T05:51:09;6.25;;;5.65;;
35496;SDS011;21609;49.298;6.844;2022-12-10T05:53:37;6.45;;;5.80;;
35496;SDS011;21609;49.298;6.844;2022-12-10T05:56:04;5.43;;;4.65;;
35496;SDS011;21609;49.298;6.844;2022-12-10T05:58:34;6.90;;;6.07;;
35496;SDS011;21609;49.298;6.844;2022-12-10T06:01:05;4.88;;;4.45;;
35496;SDS011;21609;49.298;6.844;2022-12-10T06:03:35;5.45;;;4.95;;
35496;SDS011;21609;49.298;6.844;2022-12-10T06:06:01;6.13;;;5.53;;
35496;SDS011;21609;49.298;6.844;2022-12-10T06:08:27;6.07;;;5.28;;
35496;SDS011;21609;49.298;6.844;2022-12-10T06:10:52;5.35;;;4.85;;
35496;SDS011;21609;49.298;6.844;2022-12-10T06:13:19;6.47;;;5.65;;
35496;SDS011;21609;49.298;6.844;2022-12-10T06:15:45;6.32;;;5.28;;
35496;SDS011;21609;49.298;6.844;2022-12-10T06:18:10;5.18;;;4.43;;
35496;SDS011;21609;49.298;6.844;2022-12-10T06:20:37;6.18;;;5.57;;
35496;SDS011;21609;49.298;6.844;2022-12-10T06:23:03;6.78;;;5.55;;
35496;SDS011;21609;49.298;6.844;2022-12-10T06:25:29;5.85;;;5.25;;
35496;SDS011;21609;49.298;6.844;2022-12-10T06:27:55;7.00;;;6.30;;
35496;SDS011;21609;49.298;6.844;2022-12-10T06:30:20;6.07;;;5.47;;
35496;SDS011;21609;49.298;6.844;2022-12-10T06:32:46;5.72;;;5.10;;
35496;SDS011;21609;49.298;6.844;2022-12-10T06:35:11;7.43;;;5.20;;
35496;SDS011;21609;49.298;6.844;2022-12-10T06:37:37;10.45;;;5.72;;
35496;SDS011;21609;49.298;6.844;2022-12-10T06:40:03;8.75;;;6.13;;
35496;SDS011;21609;49.298;6.844;2022-12-10T06:42:29;9.50;;;5.40;;
35496;SDS011;21609;49.298;6.844;2022-12-10T06:44:55;12.55;;;5.25;;
35496;SDS011;21609;49.298;6.844;2022-12-10T06:47:21;12.20;;;5.97;;
35496;SDS011;21609;49.298;6.844;2022-12-10T06:49:46;11.40;;;6.15;;
35496;SDS011;21609;49.298;6.844;2022-12-10T06:52:12;17.88;;;6.95;;
35496;SDS011;21609;49.298;6.844;2022-12-10T06:54:38;13.35;;;6.85;;
35496;SDS011;21609;49.298;6.844;2022-12-10T06:57:04;11.38;;;6.43;;
35496;SDS011;21609;49.298;6.844;2022-12-10T06:59:29;11.27;;;6.10;;
35496;SDS011;21609;49.298;6.844;2022-12-10T07:01:55;7.25;;;5.20;;
35496;SDS011;21609;49.298;6.844;2022-12-10T07:04:21;6.75;;;4.22;;
35496;SDS011;21609;49.298;6.844;2022-12-10T07:06:46;12.38;;;5.32;;
35496;SDS011;21609;49.298;6.844;2022-12-10T07:09:12;12.88;;;5.90;;
35496;SDS011;21609;49.298;6.844;2022-12-10T07:11:38;11.07;;;5.13;;
35496;SDS011;21609;49.298;6.844;2022-12-10T07:14:03;8.73;;;6.10;;
35496;SDS011;21609;49.298;6.844;2022-12-10T07:16:30;4.57;;;3.63;;
35496;SDS011;21609;49.298;6.844;2022-12-10T07:18:57;8.27;;;5.18;;
35496;SDS011;21609;49.298;6.844;2022-12-10T07:21:24;9.93;;;4.88;;
35496;SDS011;21609;49.298;6.844;2022-12-10T07:23:55;10.23;;;6.22;;
35496;SDS011;21609;49.298;6.844;2022-12-10T07:26:23;9.77;;;5.13;;
35496;SDS011;21609;49.298;6.844;2022-12-10T07:28:50;8.85;;;5.30;;
35496;SDS011;21609;49.298;6.844;2022-12-10T07:31:15;3.53;;;3.22;;
35496;SDS011;21609;49.298;6.844;2022-12-10T07:33:41;7.55;;;4.97;;
35496;SDS011;21609;49.298;6.844;2022-12-10T07:36:08;5.25;;;3.92;;
35496;SDS011;21609;49.298;6.844;2022-12-10T07:38:36;7.65;;;4.80;;
35496;SDS011;21609;49.298;6.844;2022-12-10T07:41:05;5.78;;;3.15;;
35496;SDS011;21609;49.298;6.844;2022-12-10T07:43:36;6.05;;;4.50;;
35496;SDS011;21609;49.298;6.844;2022-12-10T07:46:11;5.82;;;4.22;;
35496;SDS011;21609;49.298;6.844;2022-12-10T07:48:40;3.78;;;3.33;;
35496;SDS011;21609;49.298;6.844;2022-12-10T07:51:08;7.90;;;4.38;;
35496;SDS011;21609;49.298;6.844;2022-12-10T07:53:34;3.70;;;3.15;;
35496;SDS011;21609;49.298;6.844;2022-12-10T07:56:00;8.90;;;4.57;;
35496;SDS011;21609;49.298;6.844;2022-12-10T07:58:26;3.50;;;3.20;;
35496;SDS011;21609;49.298;6.844;2022-12-10T08:00:51;5.85;;;4.40;;
35496;SDS011;21609;49.298;6.844;2022-12-10T08:03:17;3.45;;;3.15;;
35496;SDS011;21609;49.298;6.844;2022-12-10T08:05:42;5.43;;;4.30;;
35496;SDS011;21609;49.298;6.844;2022-12-10T08:08:08;4.85;;;2.80;;
35496;SDS011;21609;49.298;6.844;2022-12-10T08:10:34;3.15;;;2.85;;
35496;SDS011;21609;49.298;6.844;2022-12-10T08:13:01;4.40;;;3.08;;
35496;SDS011;21609;49.298;6.844;2022-12-10T08:15:27;4.65;;;3.10;;
35496;SDS011;21609;49.298;6.844;2022-12-10T08:17:55;4.03;;;3.60;;
35496;SDS011;21609;49.298;6.844;2022-12-10T08:20:21;3.60;;;3.30;;
35496;SDS011;21609;49.298;6.844;2022-12-10T08:22:48;3.65;;;3.35;;
35496;SDS011;21609;49.298;6.844;2022-12-10T08:25:14;7.93;;;3.92;;
35496;SDS011;21609;49.298;6.844;2022-12-10T08:27:39;4.65;;;4.00;;
35496;SDS011;21609;49.298;6.844;2022-12-10T08:30:05;4.68;;;3.88;;
35496;SDS011;21609;49.298;6.844;2022-12-10T08:32:31;6.68;;;4.35;;
35496;SDS011;21609;49.298;6.844;2022-12-10T08:34:57;6.40;;;3.97;;
35496;SDS011;21609;49.298;6.844;2022-12-10T08:37:23;7.18;;;3.25;;
35496;SDS011;21609;49.298;6.844;2022-12-10T08:39:48;3.35;;;3.05;;
35496;SDS011;21609;49.298;6.844;2022-12-10T08:42:14;3.70;;;3.17;;
35496;SDS011;21609;49.298;6.844;2022-12-10T08:44:40;4.00;;;3.40;;
35496;SDS011;21609;49.298;6.844;2022-12-10T08:47:05;10.15;;;3.40;;
35496;SDS011;21609;49.298;6.844;2022-12-10T08:49:31;6.32;;;2.90;;
35496;SDS011;21609;49.298;6.844;2022-12-10T08:51:57;4.22;;;3.33;;
35496;SDS011;21609;49.298;6.844;2022-12-10T08:54:22;3.85;;;3.42;;
35496;SDS011;21609;49.298;6.844;2022-12-10T08:56:48;3.53;;;2.95;;
35496;SDS011;21609;49.298;6.844;2022-12-10T08:59:14;4.18;;;3.08;;
35496;SDS011;21609;49.298;6.844;2022-12-10T09:01:39;4.13;;;3.72;;
35496;SDS011;21609;49.298;6.844;2022-12-10T09:04:05;4.32;;;3.63;;
35496;SDS011;21609;49.298;6.844;2022-12-10T09:06:30;3.22;;;2.92;;
35496;SDS011;21609;49.298;6.844;2022-12-10T09:08:56;4.60;;;2.92;;
35496;SDS011;21609;49.298;6.844;2022-12-10T09:11:23;3.85;;;3.17;;
35496;SDS011;21609;49.298;6.844;2022-12-10T09:13:51;3.78;;;3.15;;
35496;SDS011;21609;49.298;6.844;2022-12-10T09:16:17;4.15;;;2.88;;
35496;SDS011;21609;49.298;6.844;2022-12-10T09:18:43;3.70;;;3.03;;
35496;SDS011;21609;49.298;6.844;2022-12-10T09:21:10;5.20;;;3.20;;
35496;SDS011;21609;49.298;6.844;2022-12-10T09:23:37;6.13;;;3.05;;
35496;SDS011;21609;49.298;6.844;2022-12-10T09:26:10;5.28;;;3.28;;
35496;SDS011;21609;49.298;6.844;2022-12-10T09:28:38;4.07;;;3.13;;
35496;SDS011;21609;49.298;6.844;2022-12-10T09:31:04;10.57;;;2.83;;
35496;SDS011;21609;49.298;6.844;2022-12-10T09:33:31;4.68;;;2.90;;
35496;SDS011;21609;49.298;6.844;2022-12-10T09:35:57;3.88;;;2.90;;
35496;SDS011;21609;49.298;6.844;2022-12-10T09:38:23;5.05;;;3.35;;
35496;SDS011;21609;49.298;6.844;2022-12-10T09:47:03;3.17;;;2.97;;
35496;SDS011;21609;49.298;6.844;2022-12-10T09:51:59;3.40;;;3.10;;
35496;SDS011;21609;49.298;6.844;2022-12-10T09:54:31;4.40;;;3.28;;
35496;SDS011;21609;49.298;6.844;2022-12-10T09:56:59;5.75;;;3.03;;
35496;SDS011;21609;49.298;6.844;2022-12-10T09:59:43;3.72;;;3.30;;
35496;SDS011;21609;49.298;6.844;2022-12-10T10:02:26;4.65;;;2.92;;
35496;SDS011;21609;49.298;6.844;2022-12-10T10:05:00;3.80;;;3.33;;
35496;SDS011;21609;49.298;6.844;2022-12-10T10:07:38;3.53;;;2.65;;
35496;SDS011;21609;49.298;6.844;2022-12-10T10:10:26;4.72;;;3.30;;
35496;SDS011;21609;49.298;6.844;2022-12-10T10:12:55;3.67;;;3.38;;
35496;SDS011;21609;49.298;6.844;2022-12-10T10:15:32;3.53;;;3.20;;
35496;SDS011;21609;49.298;6.844;2022-12-10T10:18:05;3.25;;;2.92;;
35496;SDS011;21609;49.298;6.844;2022-12-10T10:20:57;3.58;;;2.67;;
35496;SDS011;21609;49.298;6.844;2022-12-10T10:23:23;4.38;;;2.60;;
35496;SDS011;21609;49.298;6.844;2022-12-10T10:25:49;3.05;;;2.65;;
35496;SDS011;21609;49.298;6.844;2022-12-10T10:28:19;3.13;;;2.83;;
35496;SDS011;21609;49.298;6.844;2022-12-10T10:30:46;5.68;;;3.05;;
35496;SDS011;21609;49.298;6.844;2022-12-10T10:33:14;4.22;;;2.63;;
35496;SDS011;21609;49.298;6.844;2022-12-10T10:35:52;7.75;;;2.70;;
35496;SDS011;21609;49.298;6.844;2022-12-10T10:38:20;3.92;;;2.95;;
35496;SDS011;21609;49.298;6.844;2022-12-10T10:40:49;3.17;;;2.80;;
35496;SDS011;21609;49.298;6.844;2022-12-10T10:49:19;3.40;;;3.08;;
35496;SDS011;21609;49.298;6.844;2022-12-10T10:51:47;5.45;;;2.95;;
35496;SDS011;21609;49.298;6.844;2022-12-10T10:54:19;4.47;;;3.00;;
35496;SDS011;21609;49.298;6.844;2022-12-10T10:56:58;4.03;;;2.30;;
35496;SDS011;21609;49.298;6.844;2022-12-10T11:01:58;5.75;;;2.80;;
35496;SDS011;21609;49.298;6.844;2022-12-10T11:04:30;5.03;;;2.75;;
35496;SDS011;21609;49.298;6.844;2022-12-10T11:07:16;6.30;;;3.25;;
35496;SDS011;21609;49.298;6.844;2022-12-10T11:09:52;2.90;;;2.38;;
35496;SDS011;21609;49.298;6.844;2022-12-10T11:12:29;7.38;;;2.95;;
35496;SDS011;21609;49.298;6.844;2022-12-10T11:15:21;3.65;;;2.45;;
35496;SDS011;21609;49.298;6.844;2022-12-10T11:17:49;4.85;;;2.42;;
35496;SDS011;21609;49.298;6.844;2022-12-10T11:25:30;2.85;;;2.55;;
35496;SDS011;21609;49.298;6.844;2022-12-10T11:28:24;4.10;;;2.15;;
35496;SDS011;21609;49.298;6.844;2022-12-10T11:42:17;13.07;;;3.55;;
35496;SDS011;21609;49.298;6.844;2022-12-10T11:45:19;3.90;;;2.90;;
35496;SDS011;21609;49.298;6.844;2022-12-10T11:50:28;3.45;;;2.72;;
35496;SDS011;21609;49.298;6.844;2022-12-10T11:53:13;2.95;;;2.38;;
35496;SDS011;21609;49.298;6.844;2022-12-10T12:04:39;2.95;;;2.65;;
35496;SDS011;21609;49.298;6.844;2022-12-10T12:15:33;2.35;;;2.15;;
35496;SDS011;21609;49.298;6.844;2022-12-10T12:18:26;3.65;;;2.83;;
35496;SDS011;21609;49.298;6.844;2022-12-10T12:21:16;6.82;;;2.22;;
35496;SDS011;21609;49.298;6.844;2022-12-10T12:24:05;2.03;;;1.75;;
35496;SDS011;21609;49.298;6.844;2022-12-10T12:26:39;2.70;;;2.05;;
35496;SDS011;21609;49.298;6.844;2022-12-10T12:29:33;3.67;;;1.92;;
35496;SDS011;21609;49.298;6.844;2022-12-10T12:32:17;3.05;;;2.08;;
35496;SDS011;21609;49.298;6.844;2022-12-10T12:34:47;2.42;;;2.20;;
35496;SDS011;21609;49.298;6.844;2022-12-10T12:37:38;4.00;;;3.03;;
35496;SDS011;21609;49.298;6.844;2022-12-10T12:43:16;9.50;;;2.22;;
35496;SDS011;21609;49.298;6.844;2022-12-10T12:45:45;10.67;;;3.20;;
35496;SDS011;21609;49.298;6.844;2022-12-10T12:48:18;3.45;;;2.58;;
35496;SDS011;21609;49.298;6.844;2022-12-10T12:51:12;3.28;;;2.17;;
35496;SDS011;21609;49.298;6.844;2022-12-10T12:53:46;2.85;;;2.25;;
35496;SDS011;21609;49.298;6.844;2022-12-10T12:56:20;2.75;;;2.10;;
35496;SDS011;21609;49.298;6.844;2022-12-10T13:01:58;7.38;;;5.72;;
35496;SDS011;21609;49.298;6.844;2022-12-10T13:04:39;3.42;;;3.20;;
35496;SDS011;21609;49.298;6.844;2022-12-10T13:07:47;5.47;;;2.95;;
35496;SDS011;21609;49.298;6.844;2022-12-10T13:10:09;3.67;;;2.40;;
35496;SDS011;21609;49.298;6.844;2022-12-10T13:12:47;4.35;;;2.47;;
35496;SDS011;21609;49.298;6.844;2022-12-10T13:15:37;3.25;;;2.47;;
35496;SDS011;21609;49.298;6.844;2022-12-10T13:20:40;4.25;;;2.25;;
35496;SDS011;21609;49.298;6.844;2022-12-10T13:31:09;3.63;;;2.65;;
35496;SDS011;21609;49.298;6.844;2022-12-10T13:36:24;2.97;;;2.10;;
35496;SDS011;21609;49.298;6.844;2022-12-10T13:41:28;4.57;;;2.70;;
35496;SDS011;21609;49.298;6.844;2022-12-10T13:49:47;16.15;;;3.38;;
35496;SDS011;21609;49.298;6.844;2022-12-10T13:52:26;8.68;;;2.47;;
35496;SDS011;21609;49.298;6.844;2022-12-10T14:00:17;13.30;;;2.40;;
35496;SDS011;21609;49.298;6.844;2022-12-10T14:08:26;4.43;;;2.50;;
35496;SDS011;21609;49.298;6.844;2022-12-10T14:13:21;7.57;;;3.30;;
35496;SDS011;21609;49.298;6.844;2022-12-10T14:16:12;8.70;;;2.53;;
35496;SDS011;21609;49.298;6.844;2022-12-10T14:18:42;7.57;;;2.38;;
35496;SDS011;21609;49.298;6.844;2022-12-10T14:21:13;3.55;;;2.63;;
35496;SDS011;21609;49.298;6.844;2022-12-10T14:23:45;9.20;;;2.80;;
35496;SDS011;21609;49.298;6.844;2022-12-10T14:26:13;6.82;;;2.25;;
35496;SDS011;21609;49.298;6.844;2022-12-10T14:28:49;7.28;;;2.80;;
35496;SDS011;21609;49.298;6.844;2022-12-10T14:31:24;6.03;;;2.78;;
35496;SDS011;21609;49.298;6.844;2022-12-10T14:34:08;5.68;;;2.75;;
35496;SDS011;21609;49.298;6.844;2022-12-10T14:36:39;6.68;;;2.90;;
35496;SDS011;21609;49.298;6.844;2022-12-10T14:39:30;16.63;;;3.22;;
35496;SDS011;21609;49.298;6.844;2022-12-10T14:42:02;10.43;;;2.92;;
35496;SDS011;21609;49.298;6.844;2022-12-10T14:44:30;11.20;;;3.67;;
35496;SDS011;21609;49.298;6.844;2022-12-10T14:49:49;7.75;;;2.50;;
35496;SDS011;21609;49.298;6.844;2022-12-10T14:52:31;8.43;;;2.90;;
35496;SDS011;21609;49.298;6.844;2022-12-10T14:55:00;7.63;;;2.97;;
35496;SDS011;21609;49.298;6.844;2022-12-10T14:57:30;15.73;;;3.30;;
35496;SDS011;21609;49.298;6.844;2022-12-10T15:02:36;6.70;;;2.78;;
35496;SDS011;21609;49.298;6.844;2022-12-10T15:05:09;4.13;;;1.90;;
35496;SDS011;21609;49.298;6.844;2022-12-10T15:07:42;3.53;;;2.10;;
35496;SDS011;21609;49.298;6.844;2022-12-10T15:10:37;6.32;;;2.65;;
35496;SDS011;21609;49.298;6.844;2022-12-10T15:13:05;16.95;;;3.42;;
35496;SDS011;21609;49.298;6.844;2022-12-10T15:15:34;3.50;;;2.67;;
35496;SDS011;21609;49.298;6.844;2022-12-10T15:21:18;10.88;;;3.88;;
35496;SDS011;21609;49.298;6.844;2022-12-10T15:23:46;11.73;;;3.17;;
35496;SDS011;21609;49.298;6.844;2022-12-10T15:26:17;9.25;;;3.00;;
35496;SDS011;21609;49.298;6.844;2022-12-10T15:28:50;7.68;;;2.55;;
35496;SDS011;21609;49.298;6.844;2022-12-10T15:31:21;5.63;;;3.10;;
35496;SDS011;21609;49.298;6.844;2022-12-10T15:33:48;8.55;;;3.08;;
35496;SDS011;21609;49.298;6.844;2022-12-10T15:41:46;9.02;;;2.40;;
35496;SDS011;21609;49.298;6.844;2022-12-10T15:44:26;6.65;;;3.97;;
35496;SDS011;21609;49.298;6.844;2022-12-10T15:47:01;8.95;;;3.55;;
35496;SDS011;21609;49.298;6.844;2022-12-10T15:49:28;6.32;;;3.22;;
35496;SDS011;21609;49.298;6.844;2022-12-10T15:51:55;16.50;;;3.50;;
35496;SDS011;21609;49.298;6.844;2022-12-10T15:56:59;4.95;;;3.22;;
35496;SDS011;21609;49.298;6.844;2022-12-10T15:59:25;8.85;;;3.75;;
35496;SDS011;21609;49.298;6.844;2022-12-10T16:01:50;9.18;;;2.90;;
35496;SDS011;21609;49.298;6.844;2022-12-10T16:04:16;4.15;;;3.05;;
35496;SDS011;21609;49.298;6.844;2022-12-10T16:06:41;4.85;;;2.85;;
35496;SDS011;21609;49.298;6.844;2022-12-10T16:09:08;6.10;;;2.65;;
35496;SDS011;21609;49.298;6.844;2022-12-10T16:11:34;11.10;;;2.95;;
35496;SDS011;21609;49.298;6.844;2022-12-10T16:14:00;7.80;;;3.13;;
35496;SDS011;21609;49.298;6.844;2022-12-10T16:16:27;9.48;;;3.50;;
35496;SDS011;21609;49.298;6.844;2022-12-10T16:18:52;4.80;;;2.40;;
35496;SDS011;21609;49.298;6.844;2022-12-10T16:21:18;3.88;;;3.05;;
35496;SDS011;21609;49.298;6.844;2022-12-10T16:23:44;5.32;;;2.83;;
35496;SDS011;21609;49.298;6.844;2022-12-10T16:26:14;7.18;;;3.47;;
35496;SDS011;21609;49.298;6.844;2022-12-10T16:28:42;5.38;;;2.33;;
35496;SDS011;21609;49.298;6.844;2022-12-10T16:31:10;7.03;;;3.20;;
35496;SDS011;21609;49.298;6.844;2022-12-10T16:33:38;4.05;;;2.92;;
35496;SDS011;21609;49.298;6.844;2022-12-10T16:36:04;4.25;;;2.88;;
35496;SDS011;21609;49.298;6.844;2022-12-10T16:38:30;9.00;;;2.63;;
35496;SDS011;21609;49.298;6.844;2022-12-10T16:40:55;6.03;;;2.92;;
35496;SDS011;21609;49.298;6.844;2022-12-10T16:43:24;3.75;;;2.85;;
35496;SDS011;21609;49.298;6.844;2022-12-10T16:45:52;3.38;;;2.47;;
35496;SDS011;21609;49.298;6.844;2022-12-10T16:48:19;3.38;;;2.78;;
35496;SDS011;21609;49.298;6.844;2022-12-10T16:50:45;4.50;;;3.38;;
35496;SDS011;21609;49.298;6.844;2022-12-10T16:53:14;5.47;;;2.47;;
35496;SDS011;21609;49.298;6.844;2022-12-10T16:55:45;3.53;;;3.13;;
35496;SDS011;21609;49.298;6.844;2022-12-10T16:58:12;3.42;;;2.72;;
35496;SDS011;21609;49.298;6.844;2022-12-10T17:03:10;4.03;;;2.95;;
35496;SDS011;21609;49.298;6.844;2022-12-10T17:05:48;4.43;;;2.83;;
35496;SDS011;21609;49.298;6.844;2022-12-10T17:08:16;5.15;;;3.60;;
35496;SDS011;21609;49.298;6.844;2022-12-10T17:10:42;4.65;;;2.75;;
35496;SDS011;21609;49.298;6.844;2022-12-10T17:13:26;3.72;;;3.03;;
35496;SDS011;21609;49.298;6.844;2022-12-10T17:15:54;4.00;;;3.38;;
35496;SDS011;21609;49.298;6.844;2022-12-10T17:18:21;4.40;;;3.35;;
35496;SDS011;21609;49.298;6.844;2022-12-10T17:20:46;5.22;;;3.50;;